createdAt,value
2023-01-15T00:00:06.198Z,5.47
2023-01-15T00:01:18.877Z,5.48
2023-01-15T00:02:20.770Z,5.50
2023-01-15T00:03:22.615Z,5.51
2023-01-15T00:04:24.516Z,5.50
2023-01-15T00:05:26.344Z,5.52
2023-01-15T00:06:28.498Z,5.55
2023-01-15T00:07:30.878Z,5.57
2023-01-15T00:08:32.741Z,5.57
2023-01-15T00:09:34.599Z,5.54
2023-01-15T00:10:36.946Z,5.53
2023-01-15T00:11:38.731Z,5.58
2023-01-15T00:12:40.637Z,5.51
2023-01-15T00:13:42.646Z,5.46
2023-01-15T00:14:44.412Z,5.44
2023-01-15T00:15:46.316Z,5.44
2023-01-15T00:16:51.032Z,5.41
2023-01-15T00:17:52.824Z,5.43
2023-01-15T00:18:56.130Z,5.43
2023-01-15T00:19:58.084Z,5.44
2023-01-15T00:21:00.510Z,5.43
2023-01-15T00:22:02.356Z,5.40
2023-01-15T00:23:04.099Z,5.41
2023-01-15T00:24:24.936Z,5.45
2023-01-15T00:25:45.129Z,5.43
2023-01-15T00:27:05.601Z,5.37
2023-01-15T00:28:07.443Z,5.33
2023-01-15T00:29:09.204Z,5.33
2023-01-15T00:30:12.322Z,5.33
2023-01-15T00:31:14.512Z,5.28
2023-01-15T00:32:16.425Z,5.28
2023-01-15T00:33:18.166Z,5.29
2023-01-15T00:34:20.126Z,5.27
2023-01-15T00:35:23.196Z,5.29
2023-01-15T00:36:26.058Z,5.27
2023-01-15T00:37:27.992Z,5.26
2023-01-15T00:38:29.791Z,5.25
2023-01-15T00:39:31.622Z,5.22
2023-01-15T00:40:33.429Z,5.25
2023-01-15T00:41:35.251Z,5.29
2023-01-15T00:42:37.191Z,5.32
2023-01-15T00:43:39.032Z,5.34
2023-01-15T00:44:40.832Z,5.34
2023-01-15T00:45:42.659Z,5.33
2023-01-15T00:46:44.735Z,5.34
2023-01-15T00:47:49.259Z,5.34
2023-01-15T00:48:51.104Z,5.35
2023-01-15T00:49:53.633Z,5.38
2023-01-15T00:50:55.399Z,5.36
2023-01-15T00:51:57.183Z,5.36
2023-01-15T00:52:59.036Z,5.35
2023-01-15T00:54:01.258Z,5.35
2023-01-15T00:55:03.952Z,5.34
2023-01-15T00:56:05.794Z,5.31
2023-01-15T00:57:07.681Z,5.31
2023-01-15T00:58:09.552Z,5.30
2023-01-15T00:59:11.337Z,5.30
2023-01-15T01:00:13.741Z,5.30
2023-01-15T01:01:15.672Z,5.29
2023-01-15T01:02:17.587Z,5.29
2023-01-15T01:03:19.575Z,5.31
2023-01-15T01:04:21.386Z,5.29
2023-01-15T01:05:23.235Z,5.32
2023-01-15T01:06:25.401Z,5.34
2023-01-15T01:07:27.234Z,5.34
2023-01-15T01:08:29.780Z,5.34
2023-01-15T01:09:31.728Z,5.26
2023-01-15T01:10:33.470Z,5.25
2023-01-15T01:11:37.041Z,5.25
2023-01-15T01:12:38.990Z,5.24
2023-01-15T01:13:41.113Z,5.25
2023-01-15T01:14:44.268Z,5.27
2023-01-15T01:15:46.050Z,5.28
2023-01-15T01:16:47.873Z,5.30
2023-01-15T01:17:49.643Z,5.33
2023-01-15T01:18:51.614Z,5.35
2023-01-15T01:19:53.529Z,5.35
2023-01-15T01:20:55.422Z,5.34
2023-01-15T01:21:57.195Z,5.34
2023-01-15T01:22:58.956Z,5.30
2023-01-15T01:24:01.003Z,5.28
2023-01-15T01:25:02.833Z,5.26
2023-01-15T01:26:04.768Z,5.25
2023-01-15T01:27:06.631Z,5.26
2023-01-15T01:28:08.522Z,5.28
2023-01-15T01:29:12.556Z,5.28
2023-01-15T01:30:14.959Z,5.28
2023-01-15T01:31:16.984Z,5.30
2023-01-15T01:32:18.786Z,5.30
2023-01-15T01:33:20.595Z,5.27
2023-01-15T01:34:22.404Z,5.22
2023-01-15T01:35:24.242Z,5.22
2023-01-15T01:36:28.269Z,5.22
2023-01-15T01:37:29.981Z,5.24
2023-01-15T01:38:31.775Z,5.26
2023-01-15T01:39:33.605Z,5.27
2023-01-15T01:40:35.412Z,5.28
2023-01-15T01:41:37.272Z,5.27
2023-01-15T01:42:39.169Z,5.21
2023-01-15T01:44:01.094Z,5.19
2023-01-15T01:45:05.732Z,5.19
2023-01-15T01:46:07.520Z,5.19
2023-01-15T01:47:23.035Z,5.18
2023-01-15T01:48:26.967Z,5.14
2023-01-15T01:49:29.443Z,5.10
2023-01-15T01:50:32.512Z,5.08
2023-01-15T01:51:37.022Z,5.04
2023-01-15T01:52:42.555Z,5.02
2023-01-15T01:53:44.591Z,5.06
2023-01-15T01:54:47.575Z,5.07
2023-01-15T01:55:50.691Z,5.07
2023-01-15T01:56:52.689Z,5.06
2023-01-15T01:57:56.488Z,5.06
2023-01-15T01:58:58.561Z,5.08
2023-01-15T02:00:01.592Z,5.05
2023-01-15T02:01:03.740Z,5.07
2023-01-15T02:02:06.295Z,5.08
2023-01-15T02:03:09.662Z,5.03
2023-01-15T02:04:11.976Z,5.02
2023-01-15T02:05:26.135Z,5.06
2023-01-15T02:06:29.118Z,5.09
2023-01-15T02:07:33.808Z,5.08
2023-01-15T02:08:39.580Z,5.09
2023-01-15T02:09:41.549Z,5.11
2023-01-15T02:10:43.930Z,5.11
2023-01-15T02:11:45.854Z,5.11
2023-01-15T02:13:07.901Z,5.12
2023-01-15T02:14:33.914Z,5.14
2023-01-15T02:15:47.988Z,5.14
2023-01-15T02:16:59.044Z,5.14
2023-01-15T02:18:15.513Z,5.12
2023-01-15T02:19:37.436Z,5.09
2023-01-15T02:20:45.157Z,5.11
2023-01-15T02:22:19.318Z,5.10
2023-01-15T02:23:28.321Z,5.08
2023-01-15T02:24:43.824Z,5.07
2023-01-15T02:26:04.197Z,5.06
2023-01-15T02:27:08.085Z,5.09
2023-01-15T02:28:17.449Z,5.11
2023-01-15T02:29:25.096Z,5.10
2023-01-15T02:30:26.825Z,5.11
2023-01-15T02:31:37.582Z,5.11
2023-01-15T02:32:59.738Z,5.13
2023-01-15T02:34:12.388Z,5.11
2023-01-15T02:35:34.456Z,5.12
2023-01-15T02:36:38.863Z,5.11
2023-01-15T02:37:45.838Z,5.14
2023-01-15T02:38:49.563Z,5.16
2023-01-15T02:39:52.015Z,5.15
2023-01-15T02:40:56.612Z,5.15
2023-01-15T02:42:01.428Z,5.16
2023-01-15T02:43:04.576Z,5.15
2023-01-15T02:44:07.839Z,5.18
2023-01-15T02:45:11.148Z,5.17
2023-01-15T02:46:14.862Z,5.18
2023-01-15T02:47:19.171Z,5.15
2023-01-15T02:48:24.667Z,5.16
2023-01-15T02:49:27.300Z,5.13
2023-01-15T02:50:32.039Z,5.12
2023-01-15T02:51:38.267Z,5.13
2023-01-15T02:52:44.955Z,5.12
2023-01-15T02:53:48.724Z,5.15
2023-01-15T02:54:54.102Z,5.15
2023-01-15T02:55:58.399Z,5.15
2023-01-15T02:57:02.552Z,5.13
2023-01-15T02:58:06.457Z,5.15
2023-01-15T02:59:11.275Z,5.16
2023-01-15T03:00:14.255Z,5.17
2023-01-15T03:01:31.764Z,5.17
2023-01-15T03:02:37.254Z,5.17
2023-01-15T03:03:52.364Z,5.12
2023-01-15T03:05:02.526Z,5.12
2023-01-15T03:06:28.063Z,5.15
2023-01-15T03:07:37.420Z,5.14
2023-01-15T03:08:39.205Z,5.15
2023-01-15T03:09:41.112Z,5.15
2023-01-15T03:10:46.973Z,5.15
2023-01-15T03:12:02.897Z,5.11
2023-01-15T03:13:05.995Z,5.15
2023-01-15T03:14:09.764Z,5.16
2023-01-15T03:15:40.864Z,5.17
2023-01-15T03:16:46.415Z,5.21
2023-01-15T03:17:56.025Z,5.20
2023-01-15T03:19:19.798Z,5.17
2023-01-15T03:20:27.115Z,5.17
2023-01-15T03:21:38.499Z,5.16
2023-01-15T03:22:43.559Z,5.15
2023-01-15T03:23:48.026Z,5.12
2023-01-15T03:24:52.337Z,5.12
2023-01-15T03:25:54.294Z,5.12
2023-01-15T03:26:56.464Z,5.13
2023-01-15T03:28:00.517Z,5.13
2023-01-15T03:29:04.332Z,5.11
2023-01-15T03:30:07.911Z,5.10
2023-01-15T03:31:09.850Z,5.13
2023-01-15T03:32:11.853Z,5.16
2023-01-15T03:33:15.448Z,5.16
2023-01-15T03:34:17.341Z,5.17
2023-01-15T03:35:38.044Z,5.19
2023-01-15T03:36:39.849Z,5.19
2023-01-15T03:37:41.673Z,5.19
2023-01-15T03:38:47.155Z,5.20
2023-01-15T03:39:49.423Z,5.20
2023-01-15T03:41:11.535Z,5.21
2023-01-15T03:42:31.963Z,5.24
2023-01-15T03:43:52.284Z,5.25
2023-01-15T03:44:57.146Z,5.24
2023-01-15T03:46:01.274Z,5.21
2023-01-15T03:47:18.109Z,5.24
2023-01-15T03:48:38.163Z,5.23
2023-01-15T03:49:45.917Z,5.25
2023-01-15T03:50:54.091Z,5.25
2023-01-15T03:52:25.136Z,5.27
2023-01-15T03:53:45.985Z,5.27
2023-01-15T03:54:54.116Z,5.28
2023-01-15T03:56:02.139Z,5.31
2023-01-15T03:57:11.492Z,5.32
2023-01-15T03:58:18.222Z,5.32
2023-01-15T03:59:23.479Z,5.32
2023-01-15T04:00:32.648Z,5.34
2023-01-15T04:01:38.882Z,5.33
2023-01-15T04:02:41.070Z,5.32
2023-01-15T04:03:43.632Z,5.32
2023-01-15T04:04:46.594Z,5.29
2023-01-15T04:05:49.103Z,5.30
2023-01-15T04:06:51.095Z,5.30
2023-01-15T04:07:54.487Z,5.29
2023-01-15T04:08:56.796Z,5.29
2023-01-15T04:09:58.571Z,5.29
2023-01-15T04:11:01.714Z,5.30
2023-01-15T04:12:03.649Z,5.30
2023-01-15T04:13:06.656Z,5.32
2023-01-15T04:14:08.595Z,5.32
2023-01-15T04:15:11.459Z,5.30
2023-01-15T04:16:13.292Z,5.32
2023-01-15T04:17:15.228Z,5.32
2023-01-15T04:18:17.409Z,5.33
2023-01-15T04:19:19.190Z,5.33
2023-01-15T04:20:20.943Z,5.32
2023-01-15T04:21:22.897Z,5.34
2023-01-15T04:22:24.704Z,5.37
2023-01-15T04:23:26.505Z,5.37
2023-01-15T04:24:28.305Z,5.39
2023-01-15T04:25:30.135Z,5.41
2023-01-15T04:26:32.000Z,5.39
2023-01-15T04:27:33.820Z,5.39
2023-01-15T04:28:35.805Z,5.40
2023-01-15T04:29:37.661Z,5.40
2023-01-15T04:30:39.776Z,5.40
2023-01-15T04:31:41.716Z,5.40
2023-01-15T04:32:43.933Z,5.40
2023-01-15T04:33:45.736Z,5.40
2023-01-15T04:34:47.569Z,5.40
2023-01-15T04:35:49.457Z,5.40
2023-01-15T04:36:51.214Z,5.40
2023-01-15T04:37:59.740Z,5.41
2023-01-15T04:39:02.135Z,5.40
2023-01-15T04:40:04.100Z,5.41
2023-01-15T04:41:24.542Z,5.43
2023-01-15T04:42:52.369Z,5.43
2023-01-15T04:44:09.075Z,5.45
2023-01-15T04:45:11.024Z,5.45
2023-01-15T04:46:12.822Z,5.45
2023-01-15T04:47:14.668Z,5.45
2023-01-15T04:48:16.567Z,5.47
2023-01-15T04:49:18.917Z,5.49
2023-01-15T04:50:20.691Z,5.48
2023-01-15T04:51:22.550Z,5.51
2023-01-15T04:52:24.281Z,5.52
2023-01-15T04:53:26.274Z,5.51
2023-01-15T04:54:28.168Z,5.51
2023-01-15T04:55:30.437Z,5.51
2023-01-15T04:56:33.133Z,5.54
2023-01-15T04:57:35.694Z,5.55
2023-01-15T04:58:38.497Z,5.59
2023-01-15T04:59:40.318Z,5.60
2023-01-15T05:00:42.219Z,5.61
2023-01-15T05:01:58.037Z,5.64
2023-01-15T05:03:04.113Z,5.64
2023-01-15T05:04:06.356Z,5.63
2023-01-15T05:05:08.543Z,5.64
2023-01-15T05:06:10.866Z,5.65
2023-01-15T05:07:12.872Z,5.67
2023-01-15T05:08:14.665Z,5.68
2023-01-15T05:09:16.700Z,5.66
2023-01-15T05:10:18.415Z,5.67
2023-01-15T05:11:20.676Z,5.66
2023-01-15T05:12:22.561Z,5.66
2023-01-15T05:13:24.417Z,5.68
2023-01-15T05:14:26.414Z,5.68
2023-01-15T05:15:28.271Z,5.70
2023-01-15T05:16:30.997Z,5.72
2023-01-15T05:17:33.253Z,5.74
2023-01-15T05:18:35.132Z,5.76
2023-01-15T05:19:36.918Z,5.78
2023-01-15T05:20:38.783Z,5.80
2023-01-15T05:21:42.254Z,5.81
2023-01-15T05:22:44.037Z,5.82
2023-01-15T05:23:46.014Z,5.84
2023-01-15T05:24:47.811Z,5.84
2023-01-15T05:25:49.715Z,5.84
2023-01-15T05:26:51.599Z,5.81
2023-01-15T05:27:53.416Z,5.78
2023-01-15T05:28:56.224Z,5.79
2023-01-15T05:29:58.054Z,5.78
2023-01-15T05:30:59.901Z,5.78
2023-01-15T05:32:01.656Z,5.79
2023-01-15T05:33:03.479Z,5.81
2023-01-15T05:34:05.279Z,5.81
2023-01-15T05:35:07.448Z,5.82
2023-01-15T05:36:14.252Z,5.82
2023-01-15T05:37:16.076Z,5.84
2023-01-15T05:38:17.857Z,5.87
2023-01-15T05:39:19.754Z,5.95
2023-01-15T05:40:21.485Z,6.06
2023-01-15T05:41:41.646Z,6.14
2023-01-15T05:42:43.494Z,6.21
2023-01-15T05:43:45.244Z,6.27
2023-01-15T05:44:47.066Z,6.30
2023-01-15T05:45:48.861Z,6.31
2023-01-15T05:46:52.081Z,6.36
2023-01-15T05:47:54.136Z,6.39
2023-01-15T05:48:59.673Z,6.41
2023-01-15T05:50:01.509Z,6.41
2023-01-15T05:51:03.299Z,6.47
2023-01-15T05:52:05.303Z,6.48
2023-01-15T05:53:07.387Z,6.48
2023-01-15T05:54:11.514Z,6.49
2023-01-15T05:55:13.350Z,6.52
2023-01-15T05:56:15.215Z,6.54
2023-01-15T05:57:17.056Z,6.58
2023-01-15T05:58:18.866Z,6.59
2023-01-15T05:59:21.853Z,6.64
2023-01-15T06:00:23.819Z,6.63
2023-01-15T06:01:25.652Z,6.61
2023-01-15T06:02:27.653Z,6.58
2023-01-15T06:03:29.521Z,6.56
2023-01-15T06:04:31.527Z,6.52
2023-01-15T06:05:33.343Z,6.49
2023-01-15T06:06:36.170Z,6.47
2023-01-15T06:07:37.956Z,6.44
2023-01-15T06:08:39.795Z,6.44
2023-01-15T06:09:41.657Z,6.42
2023-01-15T06:10:45.004Z,6.42
2023-01-15T06:11:47.699Z,6.42
2023-01-15T06:12:49.595Z,6.41
2023-01-15T06:13:51.434Z,6.40
2023-01-15T06:14:53.182Z,6.39
2023-01-15T06:15:55.150Z,6.40
2023-01-15T06:16:57.060Z,6.40
2023-01-15T06:17:58.893Z,6.39
2023-01-15T06:19:02.155Z,6.38
2023-01-15T06:20:04.361Z,6.38
2023-01-15T06:21:07.127Z,6.39
2023-01-15T06:22:10.940Z,6.39
2023-01-15T06:23:12.967Z,6.39
2023-01-15T06:24:16.991Z,6.36
2023-01-15T06:25:18.748Z,6.36
2023-01-15T06:26:20.641Z,6.37
2023-01-15T06:27:22.525Z,6.31
2023-01-15T06:28:24.578Z,6.30
2023-01-15T06:29:27.091Z,6.29
2023-01-15T06:30:28.864Z,6.27
2023-01-15T06:31:30.814Z,6.24
2023-01-15T06:32:32.681Z,6.21
2023-01-15T06:33:34.671Z,6.18
2023-01-15T06:34:36.594Z,6.17
2023-01-15T06:35:38.421Z,6.15
2023-01-15T06:36:40.347Z,6.17
2023-01-15T06:37:42.157Z,6.14
2023-01-15T06:38:44.486Z,6.13
2023-01-15T06:39:46.364Z,6.13
2023-01-15T06:40:48.309Z,6.10
2023-01-15T06:42:08.747Z,6.10
2023-01-15T06:43:29.735Z,6.09
2023-01-15T06:44:49.826Z,6.09
2023-01-15T06:46:10.105Z,6.10
2023-01-15T06:47:22.894Z,6.08
2023-01-15T06:48:26.134Z,6.09
2023-01-15T06:49:27.907Z,6.09
2023-01-15T06:50:29.850Z,6.09
2023-01-15T06:51:31.621Z,6.08
2023-01-15T06:52:33.378Z,6.11
2023-01-15T06:53:35.222Z,6.11
2023-01-15T06:54:37.077Z,6.11
2023-01-15T06:55:38.983Z,6.12
2023-01-15T06:56:40.867Z,6.13
2023-01-15T06:57:42.834Z,6.13
2023-01-15T06:58:44.677Z,6.14
2023-01-15T06:59:46.768Z,6.15
2023-01-15T07:00:55.392Z,6.13
2023-01-15T07:01:57.440Z,6.14
2023-01-15T07:03:02.685Z,6.13
2023-01-15T07:04:04.705Z,6.12
2023-01-15T07:05:06.652Z,6.09
2023-01-15T07:06:09.257Z,6.10
2023-01-15T07:07:11.026Z,6.10
2023-01-15T07:08:12.922Z,6.07
2023-01-15T07:09:15.339Z,6.05
2023-01-15T07:10:17.354Z,6.03
2023-01-15T07:11:19.138Z,6.02
2023-01-15T07:12:21.709Z,6.02
2023-01-15T07:13:23.559Z,6.03
2023-01-15T07:14:26.997Z,6.02
2023-01-15T07:15:28.999Z,6.02
2023-01-15T07:16:30.823Z,6.02
2023-01-15T07:17:32.693Z,6.04
2023-01-15T07:18:34.580Z,6.04
2023-01-15T07:19:36.382Z,6.03
2023-01-15T07:20:38.343Z,6.00
2023-01-15T07:21:40.277Z,5.99
2023-01-15T07:22:42.184Z,6.01
2023-01-15T07:23:44.103Z,6.01
2023-01-15T07:24:45.926Z,5.99
2023-01-15T07:25:47.874Z,5.98
2023-01-15T07:26:49.693Z,5.97
2023-01-15T07:27:51.688Z,5.97
2023-01-15T07:28:53.555Z,5.97
2023-01-15T07:29:55.331Z,5.98
2023-01-15T07:30:58.786Z,6.00
2023-01-15T07:32:00.752Z,5.99
2023-01-15T07:33:02.716Z,6.01
2023-01-15T07:34:04.947Z,6.01
2023-01-15T07:35:06.805Z,6.01
2023-01-15T07:36:09.039Z,6.02
2023-01-15T07:37:10.944Z,6.03
2023-01-15T07:38:12.818Z,6.04
2023-01-15T07:39:14.743Z,6.03
2023-01-15T07:40:16.602Z,6.04
2023-01-15T07:41:36.719Z,6.05
2023-01-15T07:42:56.852Z,6.06
2023-01-15T07:44:17.146Z,6.08
2023-01-15T07:45:37.449Z,6.10
2023-01-15T07:46:58.131Z,6.11
2023-01-15T07:48:18.252Z,6.13
2023-01-15T07:49:38.380Z,6.14
2023-01-15T07:50:40.154Z,6.14
2023-01-15T07:51:41.962Z,6.16
2023-01-15T07:52:43.909Z,6.17
2023-01-15T07:53:45.809Z,6.18
2023-01-15T07:54:48.280Z,6.19
2023-01-15T07:55:50.179Z,6.18
2023-01-15T07:56:53.218Z,6.17
2023-01-15T07:57:55.169Z,6.17
2023-01-15T07:58:57.032Z,6.17
2023-01-15T07:59:58.829Z,6.18
2023-01-15T08:01:00.760Z,6.17
2023-01-15T08:02:02.802Z,6.18
2023-01-15T08:03:04.620Z,6.18
2023-01-15T08:04:06.397Z,6.17
2023-01-15T08:05:09.464Z,6.17
2023-01-15T08:06:11.345Z,6.17
2023-01-15T08:07:13.291Z,6.17
2023-01-15T08:08:15.892Z,6.17
2023-01-15T08:09:17.752Z,6.15
2023-01-15T08:10:20.305Z,6.17
2023-01-15T08:11:40.574Z,6.17
2023-01-15T08:13:00.644Z,6.17
2023-01-15T08:14:20.968Z,6.20
2023-01-15T08:15:22.773Z,6.21
2023-01-15T08:16:24.600Z,6.19
2023-01-15T08:17:26.391Z,6.19
2023-01-15T08:18:28.280Z,6.21
2023-01-15T08:19:32.609Z,6.21
2023-01-15T08:20:35.058Z,6.20
2023-01-15T08:21:36.901Z,6.20
2023-01-15T08:22:39.011Z,6.21
2023-01-15T08:23:40.908Z,6.24
2023-01-15T08:24:42.638Z,6.24
2023-01-15T08:25:44.424Z,6.24
2023-01-15T08:26:46.285Z,6.24
2023-01-15T08:27:48.164Z,6.25
2023-01-15T08:28:50.048Z,6.25
2023-01-15T08:29:53.165Z,6.26
2023-01-15T08:30:54.967Z,6.28
2023-01-15T08:31:56.811Z,6.28
2023-01-15T08:33:03.481Z,6.30
2023-01-15T08:34:05.389Z,6.31
2023-01-15T08:35:07.499Z,6.34
2023-01-15T08:36:09.355Z,6.34
2023-01-15T08:37:11.131Z,6.35
2023-01-15T08:38:13.058Z,6.37
2023-01-15T08:39:15.060Z,6.39
2023-01-15T08:40:16.931Z,6.39
2023-01-15T08:41:18.772Z,6.41
2023-01-15T08:42:21.357Z,6.44
2023-01-15T08:43:23.160Z,6.44
2023-01-15T08:44:25.177Z,6.48
2023-01-15T08:45:26.895Z,6.49
2023-01-15T08:46:28.799Z,6.51
2023-01-15T08:47:32.960Z,6.53
2023-01-15T08:48:34.795Z,6.57
2023-01-15T08:49:36.695Z,6.58
2023-01-15T08:50:38.671Z,6.60
2023-01-15T08:51:40.682Z,6.64
2023-01-15T08:52:42.489Z,6.68
2023-01-15T08:53:44.507Z,6.70
2023-01-15T08:54:46.389Z,6.72
2023-01-15T08:55:49.030Z,6.73
2023-01-15T08:56:50.924Z,6.76
2023-01-15T08:57:52.787Z,6.79
2023-01-15T08:58:54.628Z,6.82
2023-01-15T08:59:56.578Z,6.85
2023-01-15T09:01:08.811Z,6.87
2023-01-15T09:02:12.707Z,6.88
2023-01-15T09:03:15.162Z,6.89
2023-01-15T09:04:18.331Z,6.92
2023-01-15T09:05:20.313Z,6.92
2023-01-15T09:06:22.228Z,6.92
2023-01-15T09:07:24.092Z,6.93
2023-01-15T09:08:26.363Z,6.95
2023-01-15T09:09:28.300Z,6.95
2023-01-15T09:10:30.170Z,6.97
2023-01-15T09:11:32.239Z,6.99
2023-01-15T09:12:34.092Z,6.99
2023-01-15T09:13:36.629Z,6.98
2023-01-15T09:14:56.884Z,7.00
2023-01-15T09:16:01.135Z,7.02
2023-01-15T09:17:03.036Z,7.04
2023-01-15T09:18:04.973Z,7.07
2023-01-15T09:19:07.384Z,7.07
2023-01-15T09:20:10.288Z,7.07
2023-01-15T09:21:12.235Z,7.07
2023-01-15T09:22:14.155Z,7.09
2023-01-15T09:23:16.234Z,7.10
2023-01-15T09:24:18.050Z,7.11
2023-01-15T09:25:20.380Z,7.11
2023-01-15T09:26:30.335Z,7.12
2023-01-15T09:27:34.496Z,7.12
2023-01-15T09:28:36.355Z,7.14
2023-01-15T09:29:38.374Z,7.16
2023-01-15T09:30:40.274Z,7.14
2023-01-15T09:31:42.095Z,7.16
2023-01-15T09:32:44.027Z,7.18
2023-01-15T09:33:45.834Z,7.20
2023-01-15T09:34:47.686Z,7.21
2023-01-15T09:35:49.612Z,7.22
2023-01-15T09:36:51.529Z,7.21
2023-01-15T09:37:53.923Z,7.20
2023-01-15T09:38:56.273Z,7.20
2023-01-15T09:39:58.193Z,7.20
2023-01-15T09:41:07.477Z,7.19
2023-01-15T09:42:24.687Z,7.19
2023-01-15T09:43:49.827Z,7.21
2023-01-15T09:44:55.206Z,7.21
2023-01-15T09:46:11.431Z,7.22
2023-01-15T09:47:33.945Z,7.23
2023-01-15T09:48:44.671Z,7.23
2023-01-15T09:49:49.575Z,7.24
2023-01-15T09:50:57.412Z,7.23
2023-01-15T09:52:19.540Z,7.24
2023-01-15T09:53:39.787Z,7.24
2023-01-15T09:54:53.724Z,7.22
2023-01-15T09:55:55.704Z,7.22
2023-01-15T09:56:57.758Z,7.25
2023-01-15T09:58:01.656Z,7.26
2023-01-15T09:59:15.216Z,7.24
2023-01-15T10:00:21.360Z,7.24
2023-01-15T10:01:27.740Z,7.25
2023-01-15T10:02:44.041Z,7.27
2023-01-15T10:03:48.274Z,7.28
2023-01-15T10:04:54.497Z,7.32
2023-01-15T10:06:03.660Z,7.32
2023-01-15T10:07:24.017Z,7.32
2023-01-15T10:08:37.624Z,7.35
2023-01-15T10:09:41.080Z,7.35
2023-01-15T10:10:46.137Z,7.34
2023-01-15T10:12:10.611Z,7.34
2023-01-15T10:13:19.671Z,7.38
2023-01-15T10:14:30.249Z,7.38
2023-01-15T10:15:44.144Z,7.38
2023-01-15T10:16:46.000Z,7.37
2023-01-15T10:17:49.489Z,7.37
2023-01-15T10:18:51.575Z,7.38
2023-01-15T10:19:53.475Z,7.38
2023-01-15T10:21:05.620Z,7.39
2023-01-15T10:22:14.290Z,7.37
2023-01-15T10:23:32.396Z,7.37
2023-01-15T10:24:34.143Z,7.36
2023-01-15T10:25:43.648Z,7.33
2023-01-15T10:26:45.457Z,7.33
2023-01-15T10:27:49.879Z,7.33
2023-01-15T10:29:03.686Z,7.33
2023-01-15T10:30:07.047Z,7.31
2023-01-15T10:31:18.745Z,7.29
2023-01-15T10:32:24.715Z,7.28
2023-01-15T10:33:38.384Z,7.27
2023-01-15T10:35:04.162Z,7.29
2023-01-15T10:36:13.675Z,7.27
2023-01-15T10:37:20.763Z,7.26
2023-01-15T10:38:40.635Z,7.25
2023-01-15T10:39:42.491Z,7.27
2023-01-15T10:40:54.388Z,7.29
2023-01-15T10:41:56.171Z,7.28
2023-01-15T10:43:05.451Z,7.30
2023-01-15T10:44:45.960Z,7.31
2023-01-15T10:45:49.585Z,7.34
2023-01-15T10:46:58.467Z,7.37
2023-01-15T10:48:06.969Z,7.35
2023-01-15T10:49:16.264Z,7.35
2023-01-15T10:50:19.796Z,7.37
2023-01-15T10:51:21.579Z,7.39
2023-01-15T10:52:33.950Z,7.40
2023-01-15T10:53:42.642Z,7.44
2023-01-15T10:54:49.112Z,7.45
2023-01-15T10:55:53.365Z,7.48
2023-01-15T10:57:02.520Z,7.49
2023-01-15T10:58:16.450Z,7.50
2023-01-15T10:59:22.630Z,7.50
2023-01-15T11:00:24.996Z,7.53
2023-01-15T11:01:27.684Z,7.53
2023-01-15T11:02:38.419Z,7.55
2023-01-15T11:03:42.135Z,7.56
2023-01-15T11:04:45.662Z,7.58
2023-01-15T11:05:48.227Z,7.61
2023-01-15T11:06:50.163Z,7.66
2023-01-15T11:09:23.309Z,7.70
2023-01-15T11:10:25.262Z,7.72
2023-01-15T11:11:59.354Z,7.70
2023-01-15T11:13:21.582Z,7.68
2023-01-15T11:15:01.144Z,7.67
2023-01-15T11:16:21.722Z,7.66
2023-01-15T11:17:50.541Z,7.67
2023-01-15T11:19:11.137Z,7.68
2023-01-15T11:20:16.823Z,7.67
2023-01-15T11:21:19.898Z,7.68
2023-01-15T11:22:21.852Z,7.68
2023-01-15T11:23:23.947Z,7.67
2023-01-15T11:24:26.597Z,7.68
2023-01-15T11:25:30.336Z,7.68
2023-01-15T11:26:33.303Z,7.69
2023-01-15T11:27:36.476Z,7.70
2023-01-15T11:28:43.575Z,7.70
2023-01-15T11:29:45.556Z,7.69
2023-01-15T11:30:53.912Z,7.70
2023-01-15T11:31:55.820Z,7.70
2023-01-15T11:32:58.822Z,7.70
2023-01-15T11:34:05.770Z,7.71
2023-01-15T11:35:18.894Z,7.71
2023-01-15T11:36:23.716Z,7.69
2023-01-15T11:37:26.240Z,7.70
2023-01-15T11:38:46.675Z,7.67
2023-01-15T11:39:55.631Z,7.65
2023-01-15T11:40:59.953Z,7.61
2023-01-15T11:42:21.377Z,7.61
2023-01-15T11:43:43.539Z,7.62
2023-01-15T11:45:14.113Z,7.60
2023-01-15T11:46:50.492Z,7.60
2023-01-15T11:48:11.638Z,7.59
2023-01-15T11:49:36.073Z,7.61
2023-01-15T11:50:48.391Z,7.60
2023-01-15T11:51:50.519Z,7.60
2023-01-15T11:52:55.379Z,7.59
2023-01-15T11:54:00.836Z,7.57
2023-01-15T11:55:04.342Z,7.59
2023-01-15T11:56:10.040Z,7.58
2023-01-15T11:57:12.533Z,7.60
2023-01-15T11:58:14.439Z,7.59
2023-01-15T11:59:19.096Z,7.59
2023-01-15T12:00:25.928Z,7.61
2023-01-15T12:01:33.652Z,7.62
2023-01-15T12:02:48.182Z,7.64
2023-01-15T12:03:50.059Z,7.67
2023-01-15T12:04:59.388Z,7.67
2023-01-15T12:06:06.180Z,7.67
2023-01-15T12:07:13.450Z,7.68
2023-01-15T12:08:38.740Z,7.70
2023-01-15T12:09:55.819Z,7.73
2023-01-15T12:11:26.793Z,7.75
2023-01-15T12:12:32.006Z,7.77
2023-01-15T12:13:39.473Z,7.77
2023-01-15T12:14:59.349Z,7.80
2023-01-15T12:16:15.061Z,7.78
2023-01-15T12:17:24.352Z,7.78
2023-01-15T12:18:33.844Z,7.79
2023-01-15T12:19:41.771Z,7.80
2023-01-15T12:20:46.731Z,7.81
2023-01-15T12:22:07.295Z,7.83
2023-01-15T12:23:27.553Z,7.83
2023-01-15T12:24:48.092Z,7.84
2023-01-15T12:25:56.650Z,7.85
2023-01-15T12:27:10.762Z,7.85
2023-01-15T12:28:16.240Z,7.86
2023-01-15T12:29:18.023Z,7.86
2023-01-15T12:30:24.565Z,7.81
2023-01-15T12:31:31.189Z,7.78
2023-01-15T12:32:39.661Z,7.76
2023-01-15T12:34:01.741Z,7.75
2023-01-15T12:35:16.117Z,7.71
2023-01-15T12:36:20.764Z,7.67
2023-01-15T12:37:26.437Z,7.67
2023-01-15T12:38:51.292Z,7.68
2023-01-15T12:39:59.507Z,7.67
2023-01-15T12:41:08.467Z,7.65
2023-01-15T12:42:32.392Z,7.65
2023-01-15T12:43:52.493Z,7.65
2023-01-15T12:45:02.118Z,7.63
2023-01-15T12:46:05.616Z,7.62
2023-01-15T12:47:10.510Z,7.63
2023-01-15T12:48:20.075Z,7.66
2023-01-15T12:49:45.188Z,7.63
2023-01-15T12:50:48.339Z,7.65
2023-01-15T12:51:58.196Z,7.65
2023-01-15T12:53:04.638Z,7.68
2023-01-15T12:54:12.429Z,7.65
2023-01-15T12:55:14.694Z,7.61
2023-01-15T12:56:29.259Z,7.58
2023-01-15T12:57:37.837Z,7.54
2023-01-15T12:58:42.597Z,7.55
2023-01-15T12:59:48.683Z,7.54
2023-01-15T13:00:51.321Z,7.52
2023-01-15T13:02:10.301Z,7.54
2023-01-15T13:03:27.212Z,7.54
2023-01-15T13:04:40.158Z,7.49
2023-01-15T13:05:51.131Z,7.51
2023-01-15T13:07:12.256Z,7.47
2023-01-15T13:08:20.414Z,7.48
2023-01-15T13:09:41.658Z,7.43
2023-01-15T13:10:43.663Z,7.40
2023-01-15T13:11:45.563Z,7.39
2023-01-15T13:12:47.891Z,7.37
2023-01-15T13:13:58.466Z,7.40
2023-01-15T13:15:01.904Z,7.39
2023-01-15T13:16:10.719Z,7.31
2023-01-15T13:17:27.459Z,7.29
2023-01-15T13:18:35.176Z,7.27
2023-01-15T13:19:43.320Z,7.25
2023-01-15T13:20:48.382Z,7.27
2023-01-15T13:21:53.344Z,7.19
2023-01-15T13:22:57.969Z,7.18
2023-01-15T13:24:15.665Z,7.18
2023-01-15T13:25:43.576Z,7.20
2023-01-15T13:26:55.303Z,7.19
2023-01-15T13:28:09.711Z,7.19
2023-01-15T13:29:18.764Z,7.20
2023-01-15T13:30:39.602Z,7.18
2023-01-15T13:32:00.629Z,7.17
2023-01-15T13:33:18.963Z,7.15
2023-01-15T13:34:26.741Z,7.13
2023-01-15T13:35:37.274Z,7.13
2023-01-15T13:36:45.633Z,7.12
2023-01-15T13:37:49.816Z,7.08
2023-01-15T13:38:54.610Z,7.05
2023-01-15T13:40:01.920Z,7.05
2023-01-15T13:41:07.345Z,7.08
2023-01-15T13:42:34.785Z,7.11
2023-01-15T13:43:39.682Z,7.13
2023-01-15T13:44:49.828Z,7.16
2023-01-15T13:45:52.098Z,7.20
2023-01-15T13:47:06.166Z,7.23
2023-01-15T13:48:14.791Z,7.20
2023-01-15T13:49:28.883Z,7.19
2023-01-15T13:50:32.439Z,7.21
2023-01-15T13:51:43.456Z,7.24
2023-01-15T13:52:46.246Z,7.27
2023-01-15T13:53:49.126Z,7.29
2023-01-15T13:54:52.527Z,7.25
2023-01-15T13:55:56.788Z,7.25
2023-01-15T13:57:08.915Z,7.22
2023-01-15T13:58:18.544Z,7.20
2023-01-15T13:59:38.821Z,7.20
2023-01-15T14:00:40.678Z,7.17
2023-01-15T14:01:42.728Z,7.13
2023-01-15T14:02:52.690Z,7.12
2023-01-15T14:04:04.145Z,7.13
2023-01-15T14:05:38.759Z,7.13
2023-01-15T14:06:48.218Z,7.16
2023-01-15T14:07:50.170Z,7.19
2023-01-15T14:08:52.593Z,7.21
2023-01-15T14:09:54.420Z,7.21
2023-01-15T14:10:56.599Z,7.22
2023-01-15T14:11:58.621Z,7.24
2023-01-15T14:13:18.991Z,7.23
2023-01-15T14:14:40.782Z,7.25
2023-01-15T14:16:01.017Z,7.27
2023-01-15T14:17:02.859Z,7.24
2023-01-15T14:18:04.839Z,7.20
2023-01-15T14:19:09.506Z,7.18
2023-01-15T14:20:23.851Z,7.17
2023-01-15T14:21:38.647Z,7.16
2023-01-15T14:22:49.691Z,7.19
2023-01-15T14:23:57.551Z,7.21
2023-01-15T14:25:16.168Z,7.20
2023-01-15T14:26:19.528Z,7.18
2023-01-15T14:27:39.983Z,7.18
2023-01-15T14:28:54.849Z,7.19
2023-01-15T14:30:10.851Z,7.20
2023-01-15T14:31:19.846Z,7.19
2023-01-15T14:32:31.783Z,7.17
2023-01-15T14:33:52.197Z,7.11
2023-01-15T14:34:58.623Z,7.12
2023-01-15T14:36:09.783Z,7.11
2023-01-15T14:37:18.288Z,7.12
2023-01-15T14:38:23.107Z,7.09
2023-01-15T14:39:27.805Z,7.10
2023-01-15T14:40:33.197Z,7.07
2023-01-15T14:41:59.644Z,7.08
2023-01-15T14:43:05.025Z,7.10
2023-01-15T14:44:07.305Z,7.08